sensor_id;sensor_type;location;lat;lon;timestamp;temperature;humidity
52016;DHT22;38032;53.326;6.472;2022-09-06T00:00:23;21.10;88.30
52016;DHT22;38032;53.326;6.472;2022-09-06T00:02:49;21.00;88.30
52016;DHT22;38032;53.326;6.472;2022-09-06T00:05:15;21.00;88.50
52016;DHT22;38032;53.326;6.472;2022-09-06T00:07:41;20.90;88.70
52016;DHT22;38032;53.326;6.472;2022-09-06T00:10:07;20.90;88.90
52016;DHT22;38032;53.326;6.472;2022-09-06T00:12:34;20.90;89.00
52016;DHT22;38032;53.326;6.472;2022-09-06T00:14:59;20.80;89.10
52016;DHT22;38032;53.326;6.472;2022-09-06T00:17:25;20.80;89.00
52016;DHT22;38032;53.326;6.472;2022-09-06T00:19:51;20.80;89.10
52016;DHT22;38032;53.326;6.472;2022-09-06T00:22:17;20.70;89.30
52016;DHT22;38032;53.326;6.472;2022-09-06T00:24:42;20.70;89.60
52016;DHT22;38032;53.326;6.472;2022-09-06T00:27:08;20.70;89.70
52016;DHT22;38032;53.326;6.472;2022-09-06T00:29:34;20.60;90.00
52016;DHT22;38032;53.326;6.472;2022-09-06T00:32:00;20.60;90.00
52016;DHT22;38032;53.326;6.472;2022-09-06T00:34:27;20.60;90.00
52016;DHT22;38032;53.326;6.472;2022-09-06T00:36:53;20.60;90.10
52016;DHT22;38032;53.326;6.472;2022-09-06T00:39:19;20.50;90.00
52016;DHT22;38032;53.326;6.472;2022-09-06T00:41:45;20.50;90.10
52016;DHT22;38032;53.326;6.472;2022-09-06T00:44:11;20.50;90.20
52016;DHT22;38032;53.326;6.472;2022-09-06T00:46:39;20.50;90.20
52016;DHT22;38032;53.326;6.472;2022-09-06T00:49:09;20.40;90.30
52016;DHT22;38032;53.326;6.472;2022-09-06T00:51:36;20.40;90.30
52016;DHT22;38032;53.326;6.472;2022-09-06T00:54:04;20.40;90.30
52016;DHT22;38032;53.326;6.472;2022-09-06T00:56:32;20.30;90.40
52016;DHT22;38032;53.326;6.472;2022-09-06T00:59:00;20.30;90.50
52016;DHT22;38032;53.326;6.472;2022-09-06T01:01:26;20.30;90.60
52016;DHT22;38032;53.326;6.472;2022-09-06T01:03:52;20.30;90.70
52016;DHT22;38032;53.326;6.472;2022-09-06T01:06:24;20.30;90.80
52016;DHT22;38032;53.326;6.472;2022-09-06T01:22:06;20.10;91.80
52016;DHT22;38032;53.326;6.472;2022-09-06T01:25:04;20.10;92.10
52016;DHT22;38032;53.326;6.472;2022-09-06T01:27:45;20.00;92.10
52016;DHT22;38032;53.326;6.472;2022-09-06T01:30:16;20.00;92.30
52016;DHT22;38032;53.326;6.472;2022-09-06T01:33:02;19.90;92.30
52016;DHT22;38032;53.326;6.472;2022-09-06T01:35:49;19.90;92.30
52016;DHT22;38032;53.326;6.472;2022-09-06T01:38:16;19.90;92.40
52016;DHT22;38032;53.326;6.472;2022-09-06T01:40:42;19.90;92.50
52016;DHT22;38032;53.326;6.472;2022-09-06T01:43:10;19.90;92.70
52016;DHT22;38032;53.326;6.472;2022-09-06T01:48:15;19.80;93.10
52016;DHT22;38032;53.326;6.472;2022-09-06T01:50:51;19.80;93.20
52016;DHT22;38032;53.326;6.472;2022-09-06T01:53:45;19.80;93.10
52016;DHT22;38032;53.326;6.472;2022-09-06T01:56:46;19.80;92.90
52016;DHT22;38032;53.326;6.472;2022-09-06T02:02:07;19.70;93.20
52016;DHT22;38032;53.326;6.472;2022-09-06T02:07:15;19.70;93.20
52016;DHT22;38032;53.326;6.472;2022-09-06T02:09:44;19.70;93.40
52016;DHT22;38032;53.326;6.472;2022-09-06T02:12:13;19.70;93.40
52016;DHT22;38032;53.326;6.472;2022-09-06T02:14:50;19.60;93.50
52016;DHT22;38032;53.326;6.472;2022-09-06T02:17:20;19.60;93.60
52016;DHT22;38032;53.326;6.472;2022-09-06T02:19:53;19.60;93.60
52016;DHT22;38032;53.326;6.472;2022-09-06T02:22:22;19.60;93.60
52016;DHT22;38032;53.326;6.472;2022-09-06T02:24:51;19.60;93.60
52016;DHT22;38032;53.326;6.472;2022-09-06T02:27:18;19.60;93.60
52016;DHT22;38032;53.326;6.472;2022-09-06T02:29:44;19.60;93.70
52016;DHT22;38032;53.326;6.472;2022-09-06T02:32:17;19.60;93.70
52016;DHT22;38032;53.326;6.472;2022-09-06T02:34:43;19.50;93.80
52016;DHT22;38032;53.326;6.472;2022-09-06T02:37:11;19.50;94.00
52016;DHT22;38032;53.326;6.472;2022-09-06T02:39:38;19.50;94.20
52016;DHT22;38032;53.326;6.472;2022-09-06T02:42:05;19.50;94.40
52016;DHT22;38032;53.326;6.472;2022-09-06T02:44:32;19.50;94.40
52016;DHT22;38032;53.326;6.472;2022-09-06T02:46:57;19.50;94.40
52016;DHT22;38032;53.326;6.472;2022-09-06T02:49:24;19.40;94.40
52016;DHT22;38032;53.326;6.472;2022-09-06T02:51:50;19.50;94.50
52016;DHT22;38032;53.326;6.472;2022-09-06T02:54:15;19.40;94.50
52016;DHT22;38032;53.326;6.472;2022-09-06T02:56:41;19.40;94.50
52016;DHT22;38032;53.326;6.472;2022-09-06T02:59:07;19.40;94.60
52016;DHT22;38032;53.326;6.472;2022-09-06T03:01:33;19.40;94.70
52016;DHT22;38032;53.326;6.472;2022-09-06T03:03:59;19.40;94.70
52016;DHT22;38032;53.326;6.472;2022-09-06T03:06:25;19.40;94.80
52016;DHT22;38032;53.326;6.472;2022-09-06T03:08:50;19.30;94.80
52016;DHT22;38032;53.326;6.472;2022-09-06T03:11:16;19.30;94.80
52016;DHT22;38032;53.326;6.472;2022-09-06T03:13:42;19.30;94.90
52016;DHT22;38032;53.326;6.472;2022-09-06T03:16:08;19.30;94.90
52016;DHT22;38032;53.326;6.472;2022-09-06T03:18:34;19.30;95.00
52016;DHT22;38032;53.326;6.472;2022-09-06T03:21:00;19.20;95.10
52016;DHT22;38032;53.326;6.472;2022-09-06T03:23:27;19.20;95.20
52016;DHT22;38032;53.326;6.472;2022-09-06T03:25:53;19.20;95.30
52016;DHT22;38032;53.326;6.472;2022-09-06T03:28:20;19.10;95.40
52016;DHT22;38032;53.326;6.472;2022-09-06T03:30:47;19.10;95.50
52016;DHT22;38032;53.326;6.472;2022-09-06T03:33:14;19.10;95.60
52016;DHT22;38032;53.326;6.472;2022-09-06T03:35:40;19.10;95.80
52016;DHT22;38032;53.326;6.472;2022-09-06T03:38:11;19.00;95.90
52016;DHT22;38032;53.326;6.472;2022-09-06T03:40:37;19.00;96.00
52016;DHT22;38032;53.326;6.472;2022-09-06T03:43:02;19.00;96.10
52016;DHT22;38032;53.326;6.472;2022-09-06T03:45:28;19.00;96.20
52016;DHT22;38032;53.326;6.472;2022-09-06T03:47:54;19.00;96.30
52016;DHT22;38032;53.326;6.472;2022-09-06T03:50:19;19.00;96.40
52016;DHT22;38032;53.326;6.472;2022-09-06T03:52:45;19.00;96.50
52016;DHT22;38032;53.326;6.472;2022-09-06T03:55:11;19.00;96.60
52016;DHT22;38032;53.326;6.472;2022-09-06T03:57:36;19.00;96.80
52016;DHT22;38032;53.326;6.472;2022-09-06T04:00:03;19.00;96.90
52016;DHT22;38032;53.326;6.472;2022-09-06T04:02:29;18.90;97.00
52016;DHT22;38032;53.326;6.472;2022-09-06T04:04:54;18.90;97.10
52016;DHT22;38032;53.326;6.472;2022-09-06T04:07:21;18.90;97.20
52016;DHT22;38032;53.326;6.472;2022-09-06T04:09:47;18.90;97.40
52016;DHT22;38032;53.326;6.472;2022-09-06T04:12:13;18.90;97.40
52016;DHT22;38032;53.326;6.472;2022-09-06T04:14:39;18.90;97.50
52016;DHT22;38032;53.326;6.472;2022-09-06T04:17:05;18.80;97.60
52016;DHT22;38032;53.326;6.472;2022-09-06T04:19:31;18.90;97.70
52016;DHT22;38032;53.326;6.472;2022-09-06T04:21:57;18.80;97.90
52016;DHT22;38032;53.326;6.472;2022-09-06T04:24:22;18.80;98.00
52016;DHT22;38032;53.326;6.472;2022-09-06T04:26:48;18.80;98.20
52016;DHT22;38032;53.326;6.472;2022-09-06T04:29:14;18.80;98.30
52016;DHT22;38032;53.326;6.472;2022-09-06T04:31:40;18.80;98.40
52016;DHT22;38032;53.326;6.472;2022-09-06T04:34:05;18.80;98.50
52016;DHT22;38032;53.326;6.472;2022-09-06T04:36:31;18.80;98.60
52016;DHT22;38032;53.326;6.472;2022-09-06T04:38:57;18.80;98.70
52016;DHT22;38032;53.326;6.472;2022-09-06T04:41:23;18.80;98.90
52016;DHT22;38032;53.326;6.472;2022-09-06T04:43:48;18.80;99.10
52016;DHT22;38032;53.326;6.472;2022-09-06T04:46:22;18.80;99.30
52016;DHT22;38032;53.326;6.472;2022-09-06T04:48:51;18.80;99.50
52016;DHT22;38032;53.326;6.472;2022-09-06T04:51:17;18.70;99.70
52016;DHT22;38032;53.326;6.472;2022-09-06T04:53:43;18.70;99.90
52016;DHT22;38032;53.326;6.472;2022-09-06T04:56:14;18.80;99.90
52016;DHT22;38032;53.326;6.472;2022-09-06T04:58:41;18.70;99.90
52016;DHT22;38032;53.326;6.472;2022-09-06T05:01:07;18.70;99.90
52016;DHT22;38032;53.326;6.472;2022-09-06T05:03:32;18.70;99.90
52016;DHT22;38032;53.326;6.472;2022-09-06T05:06:07;18.70;99.90
52016;DHT22;38032;53.326;6.472;2022-09-06T05:08:36;18.70;99.90
52016;DHT22;38032;53.326;6.472;2022-09-06T05:11:02;18.70;99.90
52016;DHT22;38032;53.326;6.472;2022-09-06T05:13:28;18.70;99.90
52016;DHT22;38032;53.326;6.472;2022-09-06T05:15:54;18.70;99.90
52016;DHT22;38032;53.326;6.472;2022-09-06T05:18:19;18.70;99.90
52016;DHT22;38032;53.326;6.472;2022-09-06T05:20:55;18.80;99.90
52016;DHT22;38032;53.326;6.472;2022-09-06T05:23:21;18.70;99.90
52016;DHT22;38032;53.326;6.472;2022-09-06T05:25:47;18.70;99.90
52016;DHT22;38032;53.326;6.472;2022-09-06T05:28:14;18.70;99.90
52016;DHT22;38032;53.326;6.472;2022-09-06T05:30:40;18.70;99.90
52016;DHT22;38032;53.326;6.472;2022-09-06T05:33:07;18.70;99.90
52016;DHT22;38032;53.326;6.472;2022-09-06T05:35:33;18.70;99.90
52016;DHT22;38032;53.326;6.472;2022-09-06T05:37:59;18.70;99.90
52016;DHT22;38032;53.326;6.472;2022-09-06T05:40:25;18.70;99.90
52016;DHT22;38032;53.326;6.472;2022-09-06T05:42:51;18.70;99.90
52016;DHT22;38032;53.326;6.472;2022-09-06T05:45:17;18.70;99.90
52016;DHT22;38032;53.326;6.472;2022-09-06T05:47:42;18.70;99.90
52016;DHT22;38032;53.326;6.472;2022-09-06T05:50:09;18.60;99.90
52016;DHT22;38032;53.326;6.472;2022-09-06T05:52:34;18.60;99.90
52016;DHT22;38032;53.326;6.472;2022-09-06T05:55:01;18.60;99.90
52016;DHT22;38032;53.326;6.472;2022-09-06T05:57:27;18.60;99.90
52016;DHT22;38032;53.326;6.472;2022-09-06T05:59:53;18.60;99.90
52016;DHT22;38032;53.326;6.472;2022-09-06T06:02:19;18.60;99.90
52016;DHT22;38032;53.326;6.472;2022-09-06T06:04:45;18.60;99.90
52016;DHT22;38032;53.326;6.472;2022-09-06T06:07:12;18.60;99.90
52016;DHT22;38032;53.326;6.472;2022-09-06T06:09:37;18.60;99.90
52016;DHT22;38032;53.326;6.472;2022-09-06T06:12:04;18.70;99.90
52016;DHT22;38032;53.326;6.472;2022-09-06T06:14:30;18.70;99.90
52016;DHT22;38032;53.326;6.472;2022-09-06T06:16:56;18.70;99.90
52016;DHT22;38032;53.326;6.472;2022-09-06T06:19:21;18.70;99.90
52016;DHT22;38032;53.326;6.472;2022-09-06T06:21:47;18.70;99.90
52016;DHT22;38032;53.326;6.472;2022-09-06T06:24:13;18.70;99.90
52016;DHT22;38032;53.326;6.472;2022-09-06T06:26:39;18.70;99.90
52016;DHT22;38032;53.326;6.472;2022-09-06T06:29:05;18.70;99.90
52016;DHT22;38032;53.326;6.472;2022-09-06T06:31:35;18.70;99.90
52016;DHT22;38032;53.326;6.472;2022-09-06T06:34:01;18.70;99.90
52016;DHT22;38032;53.326;6.472;2022-09-06T06:36:29;18.70;99.90
52016;DHT22;38032;53.326;6.472;2022-09-06T06:38:57;18.80;99.90
52016;DHT22;38032;53.326;6.472;2022-09-06T06:41:25;18.80;99.90
52016;DHT22;38032;53.326;6.472;2022-09-06T06:43:52;18.70;99.90
52016;DHT22;38032;53.326;6.472;2022-09-06T06:46:18;18.70;99.90
52016;DHT22;38032;53.326;6.472;2022-09-06T06:48:44;18.80;99.90
52016;DHT22;38032;53.326;6.472;2022-09-06T06:51:13;18.80;99.90
52016;DHT22;38032;53.326;6.472;2022-09-06T06:53:40;18.90;99.90
52016;DHT22;38032;53.326;6.472;2022-09-06T06:56:17;18.90;99.90
52016;DHT22;38032;53.326;6.472;2022-09-06T06:58:44;18.90;99.90
52016;DHT22;38032;53.326;6.472;2022-09-06T07:01:11;19.00;99.90
52016;DHT22;38032;53.326;6.472;2022-09-06T07:03:37;19.00;99.90
52016;DHT22;38032;53.326;6.472;2022-09-06T07:06:04;19.10;99.90
52016;DHT22;38032;53.326;6.472;2022-09-06T07:08:30;19.10;99.90
52016;DHT22;38032;53.326;6.472;2022-09-06T07:10:56;19.20;99.90
52016;DHT22;38032;53.326;6.472;2022-09-06T07:13:21;19.30;99.90
52016;DHT22;38032;53.326;6.472;2022-09-06T07:15:47;19.40;99.90
52016;DHT22;38032;53.326;6.472;2022-09-06T07:18:15;19.40;99.90
52016;DHT22;38032;53.326;6.472;2022-09-06T07:20:41;19.50;99.90
52016;DHT22;38032;53.326;6.472;2022-09-06T07:23:07;19.60;99.90
52016;DHT22;38032;53.326;6.472;2022-09-06T07:25:33;19.70;99.90
52016;DHT22;38032;53.326;6.472;2022-09-06T07:28:00;19.70;99.90
52016;DHT22;38032;53.326;6.472;2022-09-06T07:30:29;19.70;99.90
52016;DHT22;38032;53.326;6.472;2022-09-06T07:32:57;19.80;99.90
52016;DHT22;38032;53.326;6.472;2022-09-06T07:35:23;19.90;99.90
52016;DHT22;38032;53.326;6.472;2022-09-06T07:37:58;19.90;99.90
52016;DHT22;38032;53.326;6.472;2022-09-06T07:40:26;19.90;99.90
52016;DHT22;38032;53.326;6.472;2022-09-06T07:42:55;19.80;99.90
52016;DHT22;38032;53.326;6.472;2022-09-06T07:45:21;19.80;99.90
52016;DHT22;38032;53.326;6.472;2022-09-06T07:47:55;19.80;99.90
52016;DHT22;38032;53.326;6.472;2022-09-06T07:50:24;19.80;99.90
52016;DHT22;38032;53.326;6.472;2022-09-06T07:52:50;19.80;99.90
52016;DHT22;38032;53.326;6.472;2022-09-06T07:55:15;19.90;99.90
52016;DHT22;38032;53.326;6.472;2022-09-06T07:57:41;19.90;99.90
52016;DHT22;38032;53.326;6.472;2022-09-06T08:00:07;19.90;99.90
52016;DHT22;38032;53.326;6.472;2022-09-06T08:02:35;20.00;99.90
52016;DHT22;38032;53.326;6.472;2022-09-06T08:05:01;20.10;99.90
52016;DHT22;38032;53.326;6.472;2022-09-06T08:07:26;20.30;99.90
52016;DHT22;38032;53.326;6.472;2022-09-06T08:09:52;20.50;99.90
52016;DHT22;38032;53.326;6.472;2022-09-06T08:12:18;20.60;99.90
52016;DHT22;38032;53.326;6.472;2022-09-06T08:14:43;20.70;99.90
52016;DHT22;38032;53.326;6.472;2022-09-06T08:17:10;20.70;99.90
52016;DHT22;38032;53.326;6.472;2022-09-06T08:19:35;20.80;99.90
52016;DHT22;38032;53.326;6.472;2022-09-06T08:22:01;20.90;99.90
52016;DHT22;38032;53.326;6.472;2022-09-06T08:24:27;20.90;99.90
52016;DHT22;38032;53.326;6.472;2022-09-06T08:26:53;21.00;99.90
52016;DHT22;38032;53.326;6.472;2022-09-06T08:29:19;21.00;99.90
52016;DHT22;38032;53.326;6.472;2022-09-06T08:31:45;21.00;99.90
52016;DHT22;38032;53.326;6.472;2022-09-06T08:34:11;21.10;99.90
52016;DHT22;38032;53.326;6.472;2022-09-06T08:36:39;21.20;99.90
52016;DHT22;38032;53.326;6.472;2022-09-06T08:39:06;21.40;99.90
52016;DHT22;38032;53.326;6.472;2022-09-06T08:44:38;21.60;99.90
52016;DHT22;38032;53.326;6.472;2022-09-06T08:47:12;21.70;99.90
52016;DHT22;38032;53.326;6.472;2022-09-06T08:49:41;21.80;99.90
52016;DHT22;38032;53.326;6.472;2022-09-06T08:52:30;22.00;99.90
52016;DHT22;38032;53.326;6.472;2022-09-06T08:55:22;22.00;99.90
52016;DHT22;38032;53.326;6.472;2022-09-06T09:00:23;22.20;99.90
52016;DHT22;38032;53.326;6.472;2022-09-06T09:02:58;22.30;99.90
52016;DHT22;38032;53.326;6.472;2022-09-06T09:05:33;22.40;99.90
52016;DHT22;38032;53.326;6.472;2022-09-06T09:08:15;22.70;99.90
52016;DHT22;38032;53.326;6.472;2022-09-06T09:10:49;22.90;99.90
52016;DHT22;38032;53.326;6.472;2022-09-06T09:13:27;23.10;99.90
52016;DHT22;38032;53.326;6.472;2022-09-06T09:15:55;23.30;99.50
52016;DHT22;38032;53.326;6.472;2022-09-06T09:18:24;23.50;99.70
52016;DHT22;38032;53.326;6.472;2022-09-06T09:20:51;23.90;98.50
52016;DHT22;38032;53.326;6.472;2022-09-06T09:23:17;24.50;97.10
52016;DHT22;38032;53.326;6.472;2022-09-06T09:25:44;25.00;95.90
52016;DHT22;38032;53.326;6.472;2022-09-06T09:28:20;26.10;94.10
52016;DHT22;38032;53.326;6.472;2022-09-06T09:30:49;26.90;91.50
52016;DHT22;38032;53.326;6.472;2022-09-06T09:33:35;26.90;90.10
52016;DHT22;38032;53.326;6.472;2022-09-06T09:36:08;26.70;88.30
52016;DHT22;38032;53.326;6.472;2022-09-06T09:38:42;26.90;88.20
52016;DHT22;38032;53.326;6.472;2022-09-06T09:41:09;27.00;88.30
52016;DHT22;38032;53.326;6.472;2022-09-06T09:44:02;27.20;87.20
52016;DHT22;38032;53.326;6.472;2022-09-06T09:46:32;27.40;85.90
52016;DHT22;38032;53.326;6.472;2022-09-06T09:49:10;27.90;84.10
52016;DHT22;38032;53.326;6.472;2022-09-06T09:51:39;28.30;82.10
52016;DHT22;38032;53.326;6.472;2022-09-06T09:54:07;28.90;81.50
52016;DHT22;38032;53.326;6.472;2022-09-06T09:56:48;29.00;79.30
52016;DHT22;38032;53.326;6.472;2022-09-06T09:59:25;28.80;77.90
52016;DHT22;38032;53.326;6.472;2022-09-06T10:01:57;28.60;76.90
52016;DHT22;38032;53.326;6.472;2022-09-06T10:04:32;28.40;76.90
52016;DHT22;38032;53.326;6.472;2022-09-06T10:07:07;28.20;76.30
52016;DHT22;38032;53.326;6.472;2022-09-06T10:09:36;28.30;75.90
52016;DHT22;38032;53.326;6.472;2022-09-06T10:12:03;28.40;76.00
52016;DHT22;38032;53.326;6.472;2022-09-06T10:14:32;29.00;75.00
52016;DHT22;38032;53.326;6.472;2022-09-06T10:17:04;29.80;73.50
52016;DHT22;38032;53.326;6.472;2022-09-06T10:19:40;30.50;71.40
52016;DHT22;38032;53.326;6.472;2022-09-06T10:22:22;31.30;69.70
52016;DHT22;38032;53.326;6.472;2022-09-06T10:25:09;32.00;69.10
52016;DHT22;38032;53.326;6.472;2022-09-06T10:27:48;32.50;67.30
52016;DHT22;38032;53.326;6.472;2022-09-06T10:30:18;33.20;65.80
52016;DHT22;38032;53.326;6.472;2022-09-06T10:32:48;33.70;63.90
52016;DHT22;38032;53.326;6.472;2022-09-06T10:40:51;34.50;58.80
52016;DHT22;38032;53.326;6.472;2022-09-06T10:43:20;34.60;58.50
52016;DHT22;38032;53.326;6.472;2022-09-06T10:46:01;34.70;57.90
52016;DHT22;38032;53.326;6.472;2022-09-06T10:48:34;34.70;57.60
52016;DHT22;38032;53.326;6.472;2022-09-06T10:53:54;34.70;56.30
52016;DHT22;38032;53.326;6.472;2022-09-06T10:56:26;34.80;56.50
52016;DHT22;38032;53.326;6.472;2022-09-06T10:59:01;34.70;55.80
52016;DHT22;38032;53.326;6.472;2022-09-06T11:01:39;34.60;55.40
52016;DHT22;38032;53.326;6.472;2022-09-06T11:04:10;34.60;55.30
52016;DHT22;38032;53.326;6.472;2022-09-06T11:06:50;34.50;54.90
52016;DHT22;38032;53.326;6.472;2022-09-06T11:09:40;34.40;55.00
52016;DHT22;38032;53.326;6.472;2022-09-06T11:12:22;34.20;55.40
52016;DHT22;38032;53.326;6.472;2022-09-06T11:14:52;34.20;56.00
52016;DHT22;38032;53.326;6.472;2022-09-06T11:17:33;34.10;55.60
52016;DHT22;38032;53.326;6.472;2022-09-06T11:20:13;33.90;55.40
52016;DHT22;38032;53.326;6.472;2022-09-06T11:23:02;33.80;55.50
52016;DHT22;38032;53.326;6.472;2022-09-06T11:25:44;33.70;55.40
52016;DHT22;38032;53.326;6.472;2022-09-06T11:28:18;33.50;55.80
52016;DHT22;38032;53.326;6.472;2022-09-06T11:30:48;33.30;55.80
52016;DHT22;38032;53.326;6.472;2022-09-06T11:33:23;33.20;56.20
52016;DHT22;38032;53.326;6.472;2022-09-06T11:35:50;33.00;56.40
52016;DHT22;38032;53.326;6.472;2022-09-06T11:38:18;32.90;56.40
52016;DHT22;38032;53.326;6.472;2022-09-06T11:40:51;32.70;56.30
52016;DHT22;38032;53.326;6.472;2022-09-06T11:43:45;32.60;56.60
52016;DHT22;38032;53.326;6.472;2022-09-06T11:48:59;32.40;57.60
52016;DHT22;38032;53.326;6.472;2022-09-06T11:51:33;32.20;57.30
52016;DHT22;38032;53.326;6.472;2022-09-06T11:54:00;31.80;57.20
52016;DHT22;38032;53.326;6.472;2022-09-06T11:56:31;31.60;57.70
52016;DHT22;38032;53.326;6.472;2022-09-06T11:59:04;31.40;57.60
52016;DHT22;38032;53.326;6.472;2022-09-06T12:01:31;31.30;57.80
52016;DHT22;38032;53.326;6.472;2022-09-06T12:06:31;31.10;58.30
52016;DHT22;38032;53.326;6.472;2022-09-06T12:08:58;31.10;58.70
52016;DHT22;38032;53.326;6.472;2022-09-06T12:11:32;30.90;59.50
52016;DHT22;38032;53.326;6.472;2022-09-06T12:14:01;30.90;64.80
52016;DHT22;38032;53.326;6.472;2022-09-06T12:19:50;30.40;65.40
52016;DHT22;38032;53.326;6.472;2022-09-06T12:27:38;30.20;60.60
52016;DHT22;38032;53.326;6.472;2022-09-06T12:30:39;30.20;60.40
52016;DHT22;38032;53.326;6.472;2022-09-06T12:33:12;30.10;66.40
52016;DHT22;38032;53.326;6.472;2022-09-06T12:35:38;30.00;61.00
52016;DHT22;38032;53.326;6.472;2022-09-06T12:38:06;29.90;60.10
52016;DHT22;38032;53.326;6.472;2022-09-06T12:40:37;29.80;60.40
52016;DHT22;38032;53.326;6.472;2022-09-06T12:43:08;29.80;60.50
52016;DHT22;38032;53.326;6.472;2022-09-06T12:45:35;29.70;60.50
52016;DHT22;38032;53.326;6.472;2022-09-06T12:48:04;29.70;61.60
52016;DHT22;38032;53.326;6.472;2022-09-06T12:50:30;29.70;61.10
52016;DHT22;38032;53.326;6.472;2022-09-06T12:52:58;29.70;61.10
52016;DHT22;38032;53.326;6.472;2022-09-06T12:55:28;29.60;61.70
52016;DHT22;38032;53.326;6.472;2022-09-06T12:57:59;29.60;61.50
52016;DHT22;38032;53.326;6.472;2022-09-06T13:00:46;29.50;61.40
52016;DHT22;38032;53.326;6.472;2022-09-06T13:03:37;29.50;61.60
52016;DHT22;38032;53.326;6.472;2022-09-06T13:06:05;29.50;61.40
52016;DHT22;38032;53.326;6.472;2022-09-06T13:08:46;29.50;61.50
52016;DHT22;38032;53.326;6.472;2022-09-06T13:11:14;29.50;61.70
52016;DHT22;38032;53.326;6.472;2022-09-06T13:13:48;29.40;61.30
52016;DHT22;38032;53.326;6.472;2022-09-06T13:16:23;29.40;61.80
52016;DHT22;38032;53.326;6.472;2022-09-06T13:18:50;29.50;61.70
52016;DHT22;38032;53.326;6.472;2022-09-06T13:21:27;29.50;61.70
52016;DHT22;38032;53.326;6.472;2022-09-06T13:23:54;29.50;62.30
52016;DHT22;38032;53.326;6.472;2022-09-06T13:26:34;29.50;62.10
52016;DHT22;38032;53.326;6.472;2022-09-06T13:29:20;29.50;62.10
52016;DHT22;38032;53.326;6.472;2022-09-06T13:31:49;29.50;62.40
52016;DHT22;38032;53.326;6.472;2022-09-06T13:34:25;29.50;62.00
52016;DHT22;38032;53.326;6.472;2022-09-06T13:36:54;29.50;62.50
52016;DHT22;38032;53.326;6.472;2022-09-06T13:39:36;29.50;62.70
52016;DHT22;38032;53.326;6.472;2022-09-06T13:42:25;29.50;61.70
52016;DHT22;38032;53.326;6.472;2022-09-06T13:44:51;29.40;61.90
52016;DHT22;38032;53.326;6.472;2022-09-06T13:47:17;29.40;61.50
52016;DHT22;38032;53.326;6.472;2022-09-06T13:49:43;29.40;61.60
52016;DHT22;38032;53.326;6.472;2022-09-06T13:52:09;29.30;61.80
52016;DHT22;38032;53.326;6.472;2022-09-06T13:54:35;29.20;62.30
52016;DHT22;38032;53.326;6.472;2022-09-06T13:57:01;29.00;62.40
52016;DHT22;38032;53.326;6.472;2022-09-06T13:59:27;28.80;62.90
52016;DHT22;38032;53.326;6.472;2022-09-06T14:02:02;28.80;63.50
52016;DHT22;38032;53.326;6.472;2022-09-06T14:04:29;28.80;63.40
52016;DHT22;38032;53.326;6.472;2022-09-06T14:06:56;28.80;63.10
52016;DHT22;38032;53.326;6.472;2022-09-06T14:09:22;28.90;63.90
52016;DHT22;38032;53.326;6.472;2022-09-06T14:11:49;29.00;63.90
52016;DHT22;38032;53.326;6.472;2022-09-06T14:14:15;29.00;64.30
52016;DHT22;38032;53.326;6.472;2022-09-06T14:16:42;29.10;64.00
52016;DHT22;38032;53.326;6.472;2022-09-06T14:19:08;29.10;63.00
52016;DHT22;38032;53.326;6.472;2022-09-06T14:21:34;29.10;63.20
52016;DHT22;38032;53.326;6.472;2022-09-06T14:24:01;29.00;63.20
52016;DHT22;38032;53.326;6.472;2022-09-06T14:26:27;29.00;63.30
52016;DHT22;38032;53.326;6.472;2022-09-06T14:28:53;29.00;62.90
52016;DHT22;38032;53.326;6.472;2022-09-06T14:31:22;29.00;61.90
52016;DHT22;38032;53.326;6.472;2022-09-06T14:33:50;28.90;62.10
52016;DHT22;38032;53.326;6.472;2022-09-06T14:36:18;28.90;62.50
52016;DHT22;38032;53.326;6.472;2022-09-06T14:38:45;28.90;62.30
52016;DHT22;38032;53.326;6.472;2022-09-06T14:41:12;28.90;62.30
52016;DHT22;38032;53.326;6.472;2022-09-06T14:43:41;28.90;62.40
52016;DHT22;38032;53.326;6.472;2022-09-06T14:46:10;28.90;62.20
52016;DHT22;38032;53.326;6.472;2022-09-06T14:48:37;28.90;62.10
52016;DHT22;38032;53.326;6.472;2022-09-06T14:51:13;28.90;61.90
52016;DHT22;38032;53.326;6.472;2022-09-06T14:53:40;28.90;62.90
52016;DHT22;38032;53.326;6.472;2022-09-06T14:56:07;29.00;62.30
52016;DHT22;38032;53.326;6.472;2022-09-06T14:58:35;28.90;62.10
52016;DHT22;38032;53.326;6.472;2022-09-06T15:01:10;29.00;62.10
52016;DHT22;38032;53.326;6.472;2022-09-06T15:03:39;28.90;62.20
52016;DHT22;38032;53.326;6.472;2022-09-06T15:06:05;28.90;62.90
52016;DHT22;38032;53.326;6.472;2022-09-06T15:08:32;28.90;62.70
52016;DHT22;38032;53.326;6.472;2022-09-06T15:10:58;28.90;62.70
52016;DHT22;38032;53.326;6.472;2022-09-06T15:13:24;29.00;62.40
52016;DHT22;38032;53.326;6.472;2022-09-06T15:15:52;29.00;62.40
52016;DHT22;38032;53.326;6.472;2022-09-06T15:18:18;28.90;62.60
52016;DHT22;38032;53.326;6.472;2022-09-06T15:20:44;28.80;62.40
52016;DHT22;38032;53.326;6.472;2022-09-06T15:23:11;28.70;62.80
52016;DHT22;38032;53.326;6.472;2022-09-06T15:25:37;28.70;63.50
52016;DHT22;38032;53.326;6.472;2022-09-06T15:28:02;28.70;63.90
52016;DHT22;38032;53.326;6.472;2022-09-06T15:30:28;28.70;64.40
52016;DHT22;38032;53.326;6.472;2022-09-06T15:32:54;28.70;64.40
52016;DHT22;38032;53.326;6.472;2022-09-06T15:35:20;28.70;64.20
52016;DHT22;38032;53.326;6.472;2022-09-06T15:37:46;28.80;64.20
52016;DHT22;38032;53.326;6.472;2022-09-06T15:40:13;28.80;65.40
52016;DHT22;38032;53.326;6.472;2022-09-06T15:42:39;28.80;66.00
52016;DHT22;38032;53.326;6.472;2022-09-06T15:45:06;28.70;66.20
52016;DHT22;38032;53.326;6.472;2022-09-06T15:47:32;28.60;66.80
52016;DHT22;38032;53.326;6.472;2022-09-06T15:49:59;28.60;66.80
52016;DHT22;38032;53.326;6.472;2022-09-06T15:52:26;28.50;66.70
52016;DHT22;38032;53.326;6.472;2022-09-06T15:54:52;28.30;66.60
52016;DHT22;38032;53.326;6.472;2022-09-06T15:57:45;28.20;66.90
52016;DHT22;38032;53.326;6.472;2022-09-06T16:00:12;28.00;67.30
52016;DHT22;38032;53.326;6.472;2022-09-06T16:02:38;27.90;68.00
52016;DHT22;38032;53.326;6.472;2022-09-06T16:05:05;27.80;69.90
52016;DHT22;38032;53.326;6.472;2022-09-06T16:07:31;27.70;68.60
52016;DHT22;38032;53.326;6.472;2022-09-06T16:10:14;27.60;68.70
52016;DHT22;38032;53.326;6.472;2022-09-06T16:13:35;27.50;70.10
52016;DHT22;38032;53.326;6.472;2022-09-06T16:15:56;27.40;70.80
52016;DHT22;38032;53.326;6.472;2022-09-06T16:18:22;27.30;69.70
52016;DHT22;38032;53.326;6.472;2022-09-06T16:20:48;27.20;69.80
52016;DHT22;38032;53.326;6.472;2022-09-06T16:23:14;27.10;70.00
52016;DHT22;38032;53.326;6.472;2022-09-06T16:25:40;27.00;70.10
52016;DHT22;38032;53.326;6.472;2022-09-06T16:28:06;26.90;70.20
52016;DHT22;38032;53.326;6.472;2022-09-06T16:30:31;26.90;70.40
52016;DHT22;38032;53.326;6.472;2022-09-06T16:32:57;26.80;70.60